KDIK

Dickinson - Theodore Roosevelt Regional Airport

Dickinson, North Dakota, USA
METAR KDIK 181956Z AUTO 28020G30KT 10SM CLR 08/M02 A2957 RMK AO2 PK WND 28030/1950 SLP026 T00781022
Observed Flight Rules
Dec-18 @ 19:56 UTC (34 minutes ago) Visual Flight Rules
Wind Visibility Clouds
280° at 20 knots
 Gusting to 30 knots
10 miles
  • Clear skies
Temperatures Readings
Current 8°C / 46°F
Dewpoint -2°C / 28°F
Humidity 50%
Altimeter 29.57" Hg
Pressure 1002.6 hPa
Elevation 788
METAR KDIK 181956Z AUTO 28020G30KT 10SM CLR 08/M02 A2957 RMK AO2 PK WND 28030/1950 SLP026 T00781022
Observed Flight Rules
Dec-18 @ 19:56 UTC
(34 minutes ago)
VFR
Wind Visibility
280° at 20 knots
 Gusting to 30 knots
10 miles
Clouds
  • Clear skies
Temperature Dewpoint
8°C / 46°F -2°C / 28°F
Humidity Altimeter Pressure
50% 29.57" Hg 1002.6 hPa